Time;durP1;ratioP1;P1;durP2;ratioP2;P2;SDS_P1;SDS_P2;PMS_P1;PMS_P2;Temp;Humidity;BMP_temperature;BMP_pressure;BME280_temperature;BME280_humidity;BME280_pressure;Samples;Min_cycle;Max_cycle;Signal;HPM_P1;HPM_P2
2022/05/18 00:00:06;;;;;;;9.95;3.70;;;20.10;99.90;;;;;;5094335;28;20495;-73
2022/05/18 00:02:32;;;;;;;6.00;4.28;;;20.10;99.90;;;;;;5093243;28;20446;-72
2022/05/18 00:04:58;;;;;;;8.60;4.40;;;20.10;99.90;;;;;;5092858;28;20047;-73
2022/05/18 00:07:23;;;;;;;7.82;3.30;;;20.00;99.90;;;;;;5093229;28;20032;-72
2022/05/18 00:09:51;;;;;;;5.32;3.55;;;19.90;99.90;;;;;;5093206;28;20020;-72
2022/05/18 00:12:17;;;;;;;4.55;3.33;;;20.00;99.90;;;;;;5092410;28;20114;-72
2022/05/18 00:14:43;;;;;;;6.93;3.75;;;20.00;99.90;;;;;;5093818;28;20089;-72
2022/05/18 00:17:09;;;;;;;9.93;3.65;;;20.00;99.90;;;;;;5094417;28;20028;-73
2022/05/18 00:19:34;;;;;;;6.72;3.75;;;20.00;99.90;;;;;;5092405;28;20055;-72
2022/05/18 00:22:00;;;;;;;5.32;3.08;;;19.90;99.90;;;;;;5092906;28;20024;-72
2022/05/18 00:24:26;;;;;;;7.47;4.35;;;19.80;99.90;;;;;;5093863;28;20046;-73
2022/05/18 00:26:52;;;;;;;7.20;3.97;;;19.80;99.90;;;;;;5094067;28;20032;-73
2022/05/18 00:29:18;;;;;;;7.40;4.40;;;19.80;99.90;;;;;;5093382;28;20027;-72
2022/05/18 00:31:46;;;;;;;7.15;4.35;;;19.90;99.90;;;;;;5092663;28;20035;-72
2022/05/18 00:34:12;;;;;;;7.10;4.03;;;19.90;99.90;;;;;;5093714;28;20377;-72
2022/05/18 00:36:39;;;;;;;6.18;4.03;;;19.90;99.90;;;;;;5100530;28;20036;-72
2022/05/18 00:39:05;;;;;;;7.10;3.30;;;19.80;99.90;;;;;;5102677;28;20020;-73
2022/05/18 00:41:31;;;;;;;6.20;3.67;;;19.80;99.90;;;;;;5098298;28;20024;-73
2022/05/18 00:43:57;;;;;;;11.82;3.25;;;19.90;99.90;;;;;;5097348;28;20024;-73
2022/05/18 00:46:23;;;;;;;4.40;3.13;;;19.80;99.90;;;;;;5095153;28;20111;-72
2022/05/18 00:48:49;;;;;;;7.05;3.33;;;19.80;99.90;;;;;;5094514;28;20107;-73
2022/05/18 00:51:28;;;;;;;6.13;3.97;;;19.70;99.90;;;;;;5093054;28;20457;-73
2022/05/18 00:53:59;;;;;;;6.03;3.53;;;19.70;99.90;;;;;;5092344;28;20120;-73
2022/05/18 00:56:48;;;;;;;6.03;3.20;;;19.70;99.90;;;;;;5093338;28;20113;-72
2022/05/18 00:59:31;;;;;;;6.88;3.88;;;19.60;99.90;;;;;;5091074;28;20043;-73
2022/05/18 01:01:59;;;;;;;6.32;3.25;;;19.70;99.90;;;;;;5093667;28;20028;-73
2022/05/18 01:04:26;;;;;;;5.47;3.55;;;19.60;99.90;;;;;;5089539;28;20043;-72
2022/05/18 01:07:08;;;;;;;4.30;3.10;;;19.60;99.90;;;;;;5078072;28;20036;-72
2022/05/18 01:09:37;;;;;;;6.45;3.22;;;19.50;99.90;;;;;;5072667;28;20094;-72
2022/05/18 01:12:05;;;;;;;8.43;3.75;;;19.60;99.90;;;;;;5072769;28;20354;-74
2022/05/18 01:14:39;;;;;;;9.13;3.83;;;19.60;99.90;;;;;;5072530;28;20040;-73
2022/05/18 01:17:05;;;;;;;3.90;3.28;;;19.60;99.90;;;;;;5072763;28;20493;-73
2022/05/18 01:19:37;;;;;;;6.25;3.10;;;19.60;99.90;;;;;;5070749;28;20028;-72
2022/05/18 01:22:07;;;;;;;4.32;3.30;;;19.60;99.90;;;;;;5071601;28;20107;-74
2022/05/18 01:24:51;;;;;;;8.90;3.70;;;19.60;99.90;;;;;;5072022;28;20115;-72
2022/05/18 01:27:16;;;;;;;9.20;3.75;;;19.60;99.90;;;;;;5071383;28;20465;-73
2022/05/18 01:29:42;;;;;;;5.25;3.55;;;19.60;99.90;;;;;;5070543;28;20025;-73
2022/05/18 01:32:13;;;;;;;9.48;3.63;;;19.50;99.90;;;;;;5071314;28;20027;-74
2022/05/18 01:34:42;;;;;;;5.70;3.42;;;19.50;99.90;;;;;;5072024;28;20112;-73
2022/05/18 01:37:09;;;;;;;7.65;3.22;;;19.50;99.90;;;;;;5071005;28;20032;-73
2022/05/18 01:39:41;;;;;;;7.18;3.63;;;19.50;99.90;;;;;;5071901;28;20051;-73
2022/05/18 01:42:06;;;;;;;7.38;3.85;;;19.50;99.90;;;;;;5071080;28;20052;-73
2022/05/18 01:44:37;;;;;;;5.10;4.60;;;19.50;99.90;;;;;;5071872;28;20087;-72
2022/05/18 01:47:03;;;;;;;8.55;5.65;;;19.50;99.90;;;;;;5070858;28;20025;-73
2022/05/18 01:49:29;;;;;;;9.88;6.22;;;19.50;99.90;;;;;;5071201;28;20029;-73
2022/05/18 01:51:56;;;;;;;11.85;6.93;;;19.50;99.90;;;;;;5071035;28;20462;-73
2022/05/18 01:54:21;;;;;;;8.63;5.28;;;19.40;99.90;;;;;;5071299;28;20045;-73
2022/05/18 01:56:47;;;;;;;9.60;5.03;;;19.40;99.90;;;;;;5070341;28;20377;-73
2022/05/18 01:59:13;;;;;;;10.80;4.78;;;19.40;99.90;;;;;;5070521;28;20378;-73
2022/05/18 02:01:39;;;;;;;7.78;4.65;;;19.30;99.90;;;;;;5071275;28;20027;-73
2022/05/18 02:04:05;;;;;;;5.95;4.18;;;19.30;99.90;;;;;;5070323;28;20029;-74
2022/05/18 02:06:35;;;;;;;5.53;3.88;;;19.30;99.90;;;;;;5071116;28;20028;-72
2022/05/18 02:09:01;;;;;;;7.97;4.40;;;19.30;99.90;;;;;;5070554;28;20074;-73
2022/05/18 02:11:27;;;;;;;4.90;4.38;;;19.20;99.90;;;;;;5070810;28;20047;-73
2022/05/18 02:13:53;;;;;;;6.93;4.05;;;19.30;99.90;;;;;;5072384;28;20458;-74
2022/05/18 02:16:20;;;;;;;6.13;4.10;;;19.20;99.90;;;;;;5069760;28;20072;-73
2022/05/18 02:18:46;;;;;;;4.25;3.63;;;19.20;99.90;;;;;;5071710;28;20359;-74
2022/05/18 02:21:12;;;;;;;6.97;3.90;;;19.20;99.90;;;;;;5071814;28;20028;-74
2022/05/18 02:23:39;;;;;;;6.60;4.50;;;19.20;99.90;;;;;;5070850;28;20071;-74
2022/05/18 02:26:06;;;;;;;9.00;4.45;;;19.10;99.90;;;;;;5070009;28;20187;-74
2022/05/18 02:28:32;;;;;;;6.32;3.50;;;19.10;99.90;;;;;;5071344;28;20033;-74
2022/05/18 02:30:58;;;;;;;12.15;4.20;;;19.10;99.90;;;;;;5071373;28;20032;-73
2022/05/18 02:33:24;;;;;;;4.32;3.60;;;19.10;99.90;;;;;;5069626;28;20479;-71
2022/05/18 02:35:49;;;;;;;5.97;4.00;;;19.10;99.90;;;;;;5071483;28;20037;-73
2022/05/18 02:38:15;;;;;;;6.85;3.72;;;18.90;99.90;;;;;;5071669;28;20106;-73
2022/05/18 02:40:40;;;;;;;8.73;4.95;;;19.00;99.90;;;;;;5070735;28;20020;-73
2022/05/18 02:43:06;;;;;;;9.80;4.13;;;19.00;99.90;;;;;;5071821;28;20105;-73
2022/05/18 02:45:32;;;;;;;6.60;3.53;;;18.90;99.90;;;;;;5070723;28;20061;-73
2022/05/18 02:47:57;;;;;;;6.82;3.78;;;19.00;99.90;;;;;;5070102;28;20021;-73
2022/05/18 02:50:23;;;;;;;7.28;3.72;;;19.00;99.90;;;;;;5070990;28;20484;-69
2022/05/18 02:52:49;;;;;;;5.70;3.75;;;19.00;99.90;;;;;;5069882;28;20039;-73
2022/05/18 02:57:59;;;;;;;4.75;3.25;;;18.90;99.90;;;;;;5071021;28;20039;-73
2022/05/18 03:00:25;;;;;;;5.80;3.58;;;18.80;99.90;;;;;;5069250;28;20115;-74
2022/05/18 03:02:51;;;;;;;7.30;3.70;;;18.90;99.90;;;;;;5069884;28;20437;-73
2022/05/18 03:05:17;;;;;;;6.50;3.40;;;18.90;99.90;;;;;;5071614;28;20067;-73
2022/05/18 03:07:43;;;;;;;5.60;3.80;;;18.90;99.90;;;;;;5070946;28;20025;-73
2022/05/18 03:10:10;;;;;;;7.75;3.72;;;19.00;99.90;;;;;;5069817;28;20444;-73
2022/05/18 03:12:36;;;;;;;7.65;3.92;;;19.00;99.90;;;;;;5069126;28;20037;-73
2022/05/18 03:15:02;;;;;;;4.03;3.13;;;18.90;99.90;;;;;;5071483;28;20033;-74
2022/05/18 03:17:28;;;;;;;6.05;3.28;;;19.00;99.90;;;;;;5070644;28;20020;-73
2022/05/18 03:19:53;;;;;;;8.73;4.53;;;18.90;99.90;;;;;;5071578;28;20307;-74
2022/05/18 03:25:05;;;;;;;5.28;3.65;;;19.00;99.90;;;;;;5071395;28;20034;-73
2022/05/18 03:27:31;;;;;;;8.93;3.40;;;18.90;99.90;;;;;;5072134;28;20032;-72
2022/05/18 03:29:57;;;;;;;6.70;3.67;;;19.00;99.90;;;;;;5074760;28;20492;-73
2022/05/18 03:32:23;;;;;;;4.78;3.70;;;18.90;99.90;;;;;;5073609;28;20024;-73
2022/05/18 03:34:50;;;;;;;4.85;3.88;;;18.90;99.90;;;;;;5074201;28;20131;-73
2022/05/18 03:37:17;;;;;;;4.63;3.30;;;18.90;99.90;;;;;;5073743;28;20047;-73
2022/05/18 03:39:43;;;;;;;4.32;2.97;;;18.80;99.90;;;;;;5074669;28;20479;-73
2022/05/18 03:42:09;;;;;;;6.35;3.75;;;18.80;99.90;;;;;;5074673;28;20074;-75
2022/05/18 03:44:34;;;;;;;4.18;3.40;;;18.80;99.90;;;;;;5073052;28;20033;-72
2022/05/18 03:47:00;;;;;;;7.60;4.53;;;18.80;99.90;;;;;;5073028;28;20025;-73
2022/05/18 03:49:26;;;;;;;6.50;3.47;;;18.80;99.90;;;;;;5082509;28;20024;-71
2022/05/18 03:51:52;;;;;;;6.93;4.18;;;18.70;99.90;;;;;;5094700;28;20028;-71
2022/05/18 03:54:17;;;;;;;7.22;3.75;;;18.60;99.90;;;;;;5094389;28;20097;-70
2022/05/18 03:56:43;;;;;;;9.38;3.95;;;18.50;99.90;;;;;;5093729;28;20032;-70
2022/05/18 03:59:09;;;;;;;9.30;4.47;;;18.50;99.90;;;;;;5094489;28;20059;-73
2022/05/18 04:01:34;;;;;;;13.52;4.20;;;18.60;99.90;;;;;;5091545;28;20030;-69
2022/05/18 04:04:00;;;;;;;9.18;4.00;;;18.60;99.90;;;;;;5088717;28;20035;-69
2022/05/18 04:06:26;;;;;;;7.30;3.45;;;18.70;99.90;;;;;;5094299;28;20472;-72
2022/05/18 04:08:52;;;;;;;4.55;1.55;;;18.80;99.90;;;;;;5101662;28;20024;-73
2022/05/18 04:11:18;;;;;;;3.05;1.88;;;19.90;99.90;;;;;;5099014;28;20081;-72
2022/05/18 04:13:44;;;;;;;2.60;2.28;;;20.40;99.90;;;;;;5096884;28;20024;-73
2022/05/18 04:16:10;;;;;;;4.82;3.00;;;20.80;99.90;;;;;;5083060;28;20024;-73
2022/05/18 04:18:36;;;;;;;7.03;3.00;;;20.90;99.90;;;;;;5087493;28;20039;-74
2022/05/18 04:21:02;;;;;;;3.97;2.90;;;21.20;99.90;;;;;;5113679;28;20088;-74
2022/05/18 04:23:28;;;;;;;4.25;2.90;;;21.30;99.90;;;;;;5112795;28;20031;-68
2022/05/18 04:25:54;;;;;;;4.93;2.42;;;21.40;99.90;;;;;;5113607;28;20109;-73
2022/05/18 04:28:20;;;;;;;4.72;2.60;;;21.40;99.90;;;;;;5114481;28;20028;-72
2022/05/18 04:30:47;;;;;;;4.32;2.80;;;21.50;99.90;;;;;;5103966;28;20020;-72
2022/05/18 04:33:18;;;;;;;2.95;2.47;;;21.50;99.90;;;;;;5090497;28;20063;-73
2022/05/18 04:35:44;;;;;;;5.78;3.63;;;21.50;99.90;;;;;;5104375;28;20047;-72
2022/05/18 04:38:10;;;;;;;5.85;3.40;;;21.60;99.90;;;;;;5112054;28;20369;-73
2022/05/18 04:40:36;;;;;;;7.20;3.22;;;21.50;99.90;;;;;;5101763;28;20031;-72
2022/05/18 04:43:02;;;;;;;8.43;3.65;;;21.50;99.90;;;;;;5108997;28;20093;-71
2022/05/18 04:45:28;;;;;;;6.07;3.42;;;21.60;99.90;;;;;;5115488;28;20035;-68
2022/05/18 04:47:54;;;;;;;5.10;3.45;;;21.40;99.90;;;;;;5112862;28;20028;-69
2022/05/18 04:50:20;;;;;;;8.65;4.13;;;21.10;99.90;;;;;;5113626;28;20031;-69
2022/05/18 04:52:47;;;;;;;8.52;4.22;;;21.00;99.90;;;;;;5111911;28;20028;-70
2022/05/18 04:55:13;;;;;;;6.80;3.88;;;20.60;99.90;;;;;;5111961;28;20055;-69
2022/05/18 04:57:39;;;;;;;5.53;3.40;;;20.40;99.90;;;;;;5113815;28;20020;-70
2022/05/18 05:00:07;;;;;;;11.88;4.63;;;20.30;99.90;;;;;;5114203;28;20047;-70
2022/05/18 05:02:37;;;;;;;5.95;4.43;;;20.10;99.90;;;;;;5111801;28;20049;-69
2022/05/18 05:05:06;;;;;;;6.45;4.10;;;20.10;99.90;;;;;;5113387;28;20108;-70
2022/05/18 05:07:32;;;;;;;7.53;4.75;;;20.00;99.90;;;;;;5102194;28;20032;-69
2022/05/18 05:09:57;;;;;;;8.55;5.35;;;19.90;99.90;;;;;;5094199;28;20035;-71
2022/05/18 05:12:25;;;;;;;6.18;4.63;;;19.90;99.90;;;;;;5076745;28;20484;-71
2022/05/18 05:14:51;;;;;;;5.60;4.72;;;19.80;99.90;;;;;;5072415;28;20318;-70
2022/05/18 05:17:16;;;;;;;9.32;5.07;;;19.70;99.90;;;;;;5082546;28;20062;-70
2022/05/18 05:19:42;;;;;;;6.97;5.32;;;19.50;99.90;;;;;;5090922;28;20028;-70
2022/05/18 05:22:08;;;;;;;10.23;4.90;;;19.30;99.90;;;;;;5098223;28;20020;-70
2022/05/18 05:24:35;;;;;;;5.53;4.72;;;19.20;99.90;;;;;;5112410;28;20465;-70
2022/05/18 05:27:00;;;;;;;8.30;5.43;;;19.20;99.90;;;;;;5113308;28;20028;-70
2022/05/18 05:29:26;;;;;;;7.40;5.30;;;19.30;99.90;;;;;;5113183;28;20533;-71
2022/05/18 05:31:52;;;;;;;7.10;5.25;;;19.30;99.90;;;;;;5112257;28;20388;-71
2022/05/18 05:34:17;;;;;;;10.63;5.70;;;19.30;99.90;;;;;;5111857;28;20096;-69
2022/05/18 05:36:43;;;;;;;10.13;6.15;;;19.30;99.90;;;;;;5112342;28;20458;-70
2022/05/18 05:39:09;;;;;;;14.52;5.82;;;19.10;99.90;;;;;;5111597;28;20490;-71
2022/05/18 05:41:34;;;;;;;5.95;5.35;;;19.10;99.90;;;;;;5113181;28;20019;-81
2022/05/18 05:44:00;;;;;;;10.95;5.22;;;19.10;99.90;;;;;;5104552;28;20024;-72
2022/05/18 05:46:29;;;;;;;8.00;5.25;;;19.20;99.90;;;;;;5092050;28;20121;-71
2022/05/18 05:48:56;;;;;;;8.40;5.47;;;19.20;99.90;;;;;;5107800;28;20148;-71
2022/05/18 05:51:23;;;;;;;10.45;5.25;;;19.20;99.90;;;;;;5111514;28;20177;-72
2022/05/18 05:53:50;;;;;;;7.18;4.78;;;19.30;99.90;;;;;;5097322;28;20055;-70
2022/05/18 05:56:16;;;;;;;10.90;5.18;;;19.30;99.90;;;;;;5091995;28;20074;-71
2022/05/18 05:58:43;;;;;;;15.13;5.47;;;19.40;99.90;;;;;;5089881;28;20028;-70
2022/05/18 06:01:12;;;;;;;7.45;5.13;;;19.30;99.90;;;;;;5091947;28;20365;-71
2022/05/18 06:03:38;;;;;;;10.27;5.00;;;19.50;99.90;;;;;;5089841;28;20450;-69
2022/05/18 06:06:04;;;;;;;10.20;4.55;;;19.70;99.90;;;;;;5090653;28;20093;-71
2022/05/18 06:08:31;;;;;;;8.88;5.55;;;19.80;99.90;;;;;;5091925;28;20031;-71
2022/05/18 06:10:58;;;;;;;10.40;4.88;;;19.60;99.90;;;;;;5090724;28;20104;-71
2022/05/18 06:13:25;;;;;;;15.40;5.50;;;19.70;99.90;;;;;;5091855;28;20032;-71
2022/05/18 06:15:51;;;;;;;8.57;4.97;;;19.60;99.90;;;;;;5089784;28;20028;-73
2022/05/18 06:18:16;;;;;;;9.18;5.13;;;19.70;99.90;;;;;;5090412;28;20035;-75
2022/05/18 06:20:42;;;;;;;8.40;4.85;;;19.70;99.90;;;;;;5101015;28;20113;-72
2022/05/18 06:23:09;;;;;;;7.88;5.35;;;19.70;99.90;;;;;;5110517;28;20027;-74
2022/05/18 06:25:36;;;;;;;10.00;5.28;;;19.80;99.90;;;;;;5111872;28;20351;-71
2022/05/18 06:28:04;;;;;;;13.43;4.85;;;19.90;99.90;;;;;;5110670;28;20121;-74
2022/05/18 06:30:29;;;;;;;10.85;4.38;;;20.00;99.90;;;;;;5108810;28;20023;-74
2022/05/18 06:32:55;;;;;;;5.72;4.93;;;20.10;99.90;;;;;;5111020;28;20384;-73
2022/05/18 06:35:21;;;;;;;8.20;4.88;;;20.40;99.90;;;;;;5109771;28;20512;-71
2022/05/18 06:37:48;;;;;;;15.30;6.13;;;20.50;99.90;;;;;;5105912;28;20039;-71
2022/05/18 06:40:14;;;;;;;12.18;5.47;;;20.50;99.90;;;;;;5106848;28;20467;-71
2022/05/18 06:42:40;;;;;;;12.85;5.35;;;20.60;99.90;;;;;;5108743;28;20101;-69
2022/05/18 06:45:08;;;;;;;11.23;4.70;;;20.60;99.90;;;;;;5099707;28;20135;-70
2022/05/18 06:47:34;;;;;;;16.00;5.70;;;20.80;99.90;;;;;;5091913;28;20418;-71
2022/05/18 06:50:00;;;;;;;9.93;4.75;;;21.00;99.90;;;;;;5090508;28;20027;-70
2022/05/18 06:52:26;;;;;;;9.32;5.10;;;21.00;99.90;;;;;;5092728;28;20019;-70
2022/05/18 06:54:52;;;;;;;15.48;6.85;;;21.20;99.90;;;;;;5106581;28;20050;-70
2022/05/18 06:57:18;;;;;;;10.30;4.97;;;21.90;99.90;;;;;;5106368;28;20043;-70
2022/05/18 06:59:43;;;;;;;9.48;5.25;;;21.70;99.90;;;;;;5109288;28;20028;-72
2022/05/18 07:02:09;;;;;;;16.63;7.32;;;21.90;99.90;;;;;;5109464;28;20428;-73
2022/05/18 07:04:35;;;;;;;14.98;7.55;;;22.00;99.90;;;;;;5089820;28;20035;-74
2022/05/18 07:07:01;;;;;;;11.27;5.00;;;22.40;99.90;;;;;;5077510;28;20208;-71
2022/05/18 07:09:29;;;;;;;8.70;4.82;;;22.60;99.90;;;;;;5107244;28;20054;-71
2022/05/18 07:11:55;;;;;;;14.27;4.63;;;22.80;99.90;;;;;;5099159;28;20040;-71
2022/05/18 07:14:24;;;;;;;7.25;4.20;;;23.00;99.90;;;;;;5110081;28;20119;-73
2022/05/18 07:16:50;;;;;;;10.77;4.53;;;23.10;99.90;;;;;;5109712;28;20023;-81
2022/05/18 07:19:17;;;;;;;9.70;4.25;;;23.20;99.90;;;;;;5095291;28;20021;-78
2022/05/18 07:21:43;;;;;;;8.55;4.60;;;23.30;99.90;;;;;;5089439;28;20035;-78
2022/05/18 07:24:09;;;;;;;4.75;3.63;;;23.60;99.90;;;;;;5091435;28;20021;-77
2022/05/18 07:26:36;;;;;;;8.25;4.32;;;23.50;99.90;;;;;;5085276;28;20040;-78
2022/05/18 07:29:03;;;;;;;14.15;4.95;;;23.80;99.90;;;;;;5105272;28;20028;-80
2022/05/18 07:32:08;;;;;;;7.95;3.92;;;23.50;99.90;;;;;;5101256;28;20028;-79
2022/05/18 07:34:18;;;;;;;6.93;3.95;;;23.70;99.90;;;;;;5091633;28;20477;-79
2022/05/18 07:36:44;;;;;;;5.13;3.22;;;23.80;98.40;;;;;;5091898;28;20024;-78
2022/05/18 07:39:11;;;;;;;5.45;3.33;;;23.50;98.70;;;;;;5096786;28;20048;-78
2022/05/18 07:41:37;;;;;;;6.43;3.22;;;23.60;99.90;;;;;;5113808;28;20441;-78
2022/05/18 07:44:03;;;;;;;8.52;3.92;;;24.00;99.20;;;;;;5118923;28;20046;-78
2022/05/18 07:46:29;;;;;;;7.35;3.83;;;24.30;99.10;;;;;;5112699;28;20024;-80
2022/05/18 07:48:55;;;;;;;10.30;3.55;;;24.40;98.00;;;;;;5112208;28;20053;-77
2022/05/18 07:51:20;;;;;;;8.13;3.38;;;24.70;97.80;;;;;;5113539;28;20028;-79
2022/05/18 07:53:46;;;;;;;9.95;2.75;;;25.00;97.30;;;;;;5111857;28;20481;-78
2022/05/18 07:56:12;;;;;;;7.25;3.22;;;24.90;97.20;;;;;;5107354;28;20028;-73
2022/05/18 07:58:38;;;;;;;8.90;3.58;;;24.90;97.30;;;;;;5076190;28;20056;-73
2022/05/18 08:01:03;;;;;;;8.52;4.22;;;25.20;97.10;;;;;;5087688;28;20538;-72
2022/05/18 08:03:29;;;;;;;4.65;2.75;;;25.50;95.80;;;;;;5090956;28;20036;-70
2022/05/18 08:05:55;;;;;;;3.38;2.15;;;25.60;95.40;;;;;;5101836;28;20028;-71
2022/05/18 08:08:22;;;;;;;8.10;2.85;;;25.70;94.60;;;;;;5091758;28;20029;-72
2022/05/18 08:16:17;;;;;;;5.78;2.92;;;25.60;94.40;;;;;;5095113;28;20170;-75
2022/05/18 08:18:42;;;;;;;9.50;3.10;;;25.30;94.60;;;;;;5112119;28;20031;-72
2022/05/18 08:21:08;;;;;;;4.03;2.83;;;25.60;94.70;;;;;;5114162;28;20471;-74
2022/05/18 08:23:34;;;;;;;4.82;2.72;;;25.90;94.20;;;;;;5112801;28;20114;-74
2022/05/18 08:26:01;;;;;;;3.15;2.35;;;25.80;93.20;;;;;;5113569;28;20031;-74
2022/05/18 08:28:27;;;;;;;3.92;2.20;;;25.60;92.40;;;;;;5114125;28;20102;-75
2022/05/18 08:30:54;;;;;;;5.32;2.55;;;25.60;92.90;;;;;;5113250;28;20055;-74
2022/05/18 08:33:20;;;;;;;4.55;2.60;;;25.70;92.40;;;;;;5113927;27;20156;-74
2022/05/18 08:35:47;;;;;;;6.63;2.80;;;26.10;92.70;;;;;;5111478;28;20135;-73
2022/05/18 08:38:15;;;;;;;4.45;2.45;;;26.60;92.60;;;;;;5113718;28;20023;-74
2022/05/18 08:41:07;;;;;;;10.13;2.75;;;26.40;92.20;;;;;;5113648;28;20041;-74
2022/05/18 08:43:36;;;;;;;10.88;2.92;;;26.40;91.60;;;;;;5112511;28;20500;-74
2022/05/18 08:46:06;;;;;;;5.53;2.88;;;26.40;91.70;;;;;;5111873;28;20443;-74
2022/05/18 08:48:38;;;;;;;5.75;3.10;;;26.40;91.40;;;;;;5112443;28;20027;-75
2022/05/18 08:51:23;;;;;;;5.05;2.67;;;26.10;92.00;;;;;;5111648;28;20059;-74
2022/05/18 08:54:04;;;;;;;7.70;2.58;;;26.50;92.30;;;;;;5111496;28;20053;-74
2022/05/18 08:56:31;;;;;;;;;;;26.80;91.20;;;;;;5111936;28;20089;-74
2022/05/18 08:58:57;;;;;;;6.20;2.55;;;27.10;90.70;;;;;;5112976;28;20217;-75
2022/05/18 09:01:37;;;;;;;7.75;2.88;;;26.90;91.00;;;;;;5112331;28;20030;-75
2022/05/18 09:04:49;;;;;;;7.68;2.72;;;27.10;91.70;;;;;;5112589;28;20119;-74
2022/05/18 09:07:19;;;;;;;5.70;2.35;;;27.40;91.10;;;;;;5112011;28;20035;-74
2022/05/18 09:10:16;;;;;;;3.22;2.25;;;27.60;90.70;;;;;;5112111;28;20034;-69
2022/05/18 09:12:50;;;;;;;4.63;2.63;;;28.00;90.90;;;;;;5111959;28;20036;-75
2022/05/18 09:15:48;;;;;;;3.20;2.28;;;28.40;90.00;;;;;;5111898;28;20039;-75
2022/05/18 09:18:30;;;;;;;2.92;1.98;;;28.40;90.00;;;;;;5113118;28;20112;-76
2022/05/18 09:21:19;;;;;;;4.95;2.53;;;27.80;89.30;;;;;;5113055;28;20102;-75
2022/05/18 09:24:04;;;;;;;4.80;2.22;;;27.90;87.70;;;;;;5113051;28;20326;-75
2022/05/18 09:27:04;;;;;;;6.45;2.30;;;27.90;88.90;;;;;;5113357;28;20066;-75
2022/05/18 09:29:47;;;;;;;3.53;2.63;;;28.20;88.80;;;;;;5115251;28;20034;-76
2022/05/18 09:32:42;;;;;;;5.18;2.65;;;28.70;87.80;;;;;;5113080;28;20027;-75
2022/05/18 09:35:29;;;;;;;5.40;2.00;;;28.60;87.20;;;;;;5098066;28;20086;-75
2022/05/18 09:38:01;;;;;;;5.18;2.00;;;29.30;85.40;;;;;;5111783;28;20032;-75
2022/05/18 09:40:34;;;;;;;3.47;2.10;;;29.50;85.90;;;;;;5112936;27;20100;-75
2022/05/18 09:43:12;;;;;;;7.63;1.90;;;29.70;84.80;;;;;;5112594;27;20349;-75
2022/05/18 09:45:42;;;;;;;1.95;1.40;;;29.20;84.90;;;;;;5113148;28;20104;-75
2022/05/18 09:48:13;;;;;;;4.93;2.17;;;29.10;84.60;;;;;;5111119;28;20042;-75
2022/05/18 09:50:43;;;;;;;6.32;2.20;;;29.50;85.30;;;;;;5094788;28;20058;-75
2022/05/18 09:53:09;;;;;;;5.40;1.87;;;30.00;82.50;;;;;;5110414;28;20028;-76
2022/05/18 09:55:35;;;;;;;4.13;1.92;;;29.30;82.40;;;;;;5111372;28;20452;-75
2022/05/18 09:58:15;;;;;;;8.63;2.28;;;29.00;83.90;;;;;;5112174;28;20030;-75
2022/05/18 10:00:41;;;;;;;3.50;1.55;;;29.10;83.40;;;;;;5112873;28;20027;-75
2022/05/18 10:08:47;;;;;;;5.38;1.38;;;29.80;81.40;;;;;;5112265;28;20038;-75
2022/05/18 10:11:22;;;;;;;2.22;1.23;;;29.90;79.30;;;;;;5110356;28;20384;-76
2022/05/18 10:14:17;;;;;;;3.10;1.20;;;30.10;78.30;;;;;;5110844;28;20031;-74
2022/05/18 10:17:01;;;;;;;2.00;1.40;;;29.70;76.50;;;;;;5110400;28;20126;-76
2022/05/18 10:19:35;;;;;;;3.47;1.40;;;29.70;78.70;;;;;;5112187;28;20023;-75
2022/05/18 10:22:04;;;;;;;5.70;1.23;;;29.70;77.40;;;;;;5111060;28;20473;-74
2022/05/18 10:24:47;;;;;;;1.85;1.23;;;29.40;76.80;;;;;;5112417;28;20024;-76
2022/05/18 10:27:13;;;;;;;2.55;1.77;;;29.40;76.70;;;;;;5110129;28;20090;-76
2022/05/18 10:29:40;;;;;;;3.25;1.52;;;29.90;76.20;;;;;;5111848;28;20024;-76
2022/05/18 10:32:10;;;;;;;3.22;1.60;;;30.00;75.30;;;;;;5111224;27;20070;-75
2022/05/18 10:34:51;;;;;;;4.32;1.52;;;29.70;77.00;;;;;;5110278;28;20126;-76
2022/05/18 10:37:34;;;;;;;4.38;1.48;;;30.20;76.40;;;;;;5111145;27;20028;-75
2022/05/18 10:40:12;;;;;;;3.20;1.73;;;30.60;75.40;;;;;;5109811;28;20019;-75
2022/05/18 10:42:55;;;;;;;5.07;1.48;;;30.70;75.70;;;;;;5110257;28;20032;-76
2022/05/18 10:45:26;;;;;;;5.75;1.80;;;30.90;77.30;;;;;;5111634;28;20540;-77
2022/05/18 10:47:56;;;;;;;2.35;1.50;;;31.50;75.10;;;;;;5100497;28;20058;-75
2022/05/18 10:50:23;;;;;;;1.70;1.10;;;32.10;74.20;;;;;;5070980;28;20064;-75
2022/05/18 10:52:51;;;;;;;3.25;0.93;;;32.20;72.20;;;;;;5071304;28;20029;-76
2022/05/18 10:55:20;;;;;;;3.03;1.20;;;31.40;71.70;;;;;;5069415;28;20041;-77
2022/05/18 10:57:59;;;;;;;2.67;1.30;;;31.30;71.50;;;;;;5076277;28;20055;-76
2022/05/18 11:00:35;;;;;;;3.47;1.42;;;30.60;72.90;;;;;;5094292;28;20117;-75
2022/05/18 11:03:20;;;;;;;2.03;1.20;;;30.10;73.90;;;;;;5090941;28;20449;-75
2022/05/18 11:05:58;;;;;;;4.82;2.17;;;30.70;74.30;;;;;;5089689;28;20035;-77
2022/05/18 11:08:28;;;;;;;2.90;1.52;;;31.10;74.30;;;;;;5090982;28;20289;-76
2022/05/18 11:10:58;;;;;;;5.95;1.42;;;31.70;74.40;;;;;;5107851;28;20051;-75
2022/05/18 11:13:33;;;;;;;3.80;1.30;;;31.90;72.80;;;;;;5111503;28;20114;-75
2022/05/18 11:16:37;;;;;;;3.75;1.60;;;31.50;73.40;;;;;;5109314;28;20729;-74
2022/05/18 11:19:11;;;;;;;3.80;1.48;;;30.70;73.30;;;;;;5106133;28;20036;-76
2022/05/18 11:21:45;;;;;;;6.32;1.95;;;31.20;73.80;;;;;;5111167;28;20032;-76
2022/05/18 11:24:45;;;;;;;5.47;1.75;;;30.80;72.80;;;;;;5109292;28;20028;-76
2022/05/18 11:27:17;;;;;;;3.05;1.35;;;30.80;73.90;;;;;;5093717;28;20023;-75
2022/05/18 11:30:13;;;;;;;4.88;1.10;;;31.30;74.50;;;;;;5110860;28;20032;-70
2022/05/18 11:32:51;;;;;;;2.30;1.13;;;31.50;72.40;;;;;;5107346;28;20081;-74
2022/05/18 11:35:33;;;;;;;3.58;1.60;;;31.00;72.20;;;;;;5104724;28;20035;-79
2022/05/18 11:38:06;;;;;;;8.15;6.78;;;31.00;73.20;;;;;;5109606;28;20112;-75
2022/05/18 11:40:54;;;;;;;2.47;1.80;;;30.40;74.20;;;;;;5110409;28;20376;-78
2022/05/18 11:43:43;;;;;;;1.30;0.90;;;29.90;70.60;;;;;;5109991;28;20031;-75
2022/05/18 11:46:53;;;;;;;3.30;1.00;;;29.80;71.10;;;;;;5099194;28;20527;-76
2022/05/18 11:49:28;;;;;;;1.45;0.88;;;29.90;71.10;;;;;;5072774;28;20040;-76
2022/05/18 11:52:02;;;;;;;3.92;1.08;;;30.10;70.80;;;;;;5094997;28;20082;-68
2022/05/18 11:54:56;;;;;;;6.03;1.48;;;30.50;71.60;;;;;;5095506;28;20097;-74
2022/05/18 11:57:30;;;;;;;1.75;1.13;;;30.70;71.60;;;;;;5094826;28;20040;-73
2022/05/18 12:03:34;;;;;;;3.50;1.33;;;31.30;73.00;;;;;;5011673;28;20026;-75
2022/05/18 12:06:08;;;;;;;2.50;1.40;;;31.40;69.90;;;;;;5058178;28;20045;-76
2022/05/18 12:08:48;;;;;;;5.93;1.38;;;31.40;70.50;;;;;;5072784;28;20028;-75
2022/05/18 12:11:23;;;;;;;4.90;1.73;;;30.80;72.20;;;;;;5073355;28;20021;-75
2022/05/18 12:14:11;;;;;;;2.22;1.40;;;30.30;73.60;;;;;;5072882;28;20540;-76
2022/05/18 12:17:13;;;;;;;3.13;1.02;;;30.20;72.10;;;;;;5073834;28;20028;-75
2022/05/18 12:20:11;;;;;;;1.50;1.30;;;30.40;72.20;;;;;;5073752;28;20028;-75
2022/05/18 12:22:49;;;;;;;7.28;1.48;;;30.40;72.80;;;;;;5073987;28;20183;-74
2022/05/18 12:25:20;;;;;;;4.40;1.55;;;30.30;73.00;;;;;;5073158;28;20085;-76
2022/05/18 12:27:47;;;;;;;7.55;2.08;;;30.40;74.00;;;;;;5073625;28;20111;-73
2022/05/18 12:30:17;;;;;;;2.00;1.20;;;30.20;73.80;;;;;;5073054;28;20469;-76
2022/05/18 12:32:44;;;;;;;1.55;1.00;;;30.40;71.60;;;;;;5074461;28;20031;-78
2022/05/18 12:35:35;;;;;;;4.13;1.95;;;30.50;71.10;;;;;;5097369;28;20057;-77
2022/05/18 12:38:22;;;;;;;3.50;0.65;;;30.80;69.80;;;;;;5104587;28;20040;-77
2022/05/18 12:41:02;;;;;;;2.05;1.25;;;30.70;68.90;;;;;;5112725;28;20337;-78
2022/05/18 12:43:39;;;;;;;2.10;1.10;;;30.60;69.10;;;;;;5113499;28;20114;-79
2022/05/18 12:46:52;;;;;;;4.22;1.30;;;30.50;69.60;;;;;;5113858;28;20429;-78
2022/05/18 12:49:42;;;;;;;2.38;1.17;;;30.50;69.50;;;;;;5108410;28;20557;-78
2022/05/18 12:52:27;;;;;;;1.15;1.05;;;30.50;70.40;;;;;;5113831;27;20096;-78
2022/05/18 12:54:55;;;;;;;2.40;1.20;;;30.80;70.70;;;;;;5114641;28;20126;-79
2022/05/18 12:57:43;;;;;;;3.47;1.10;;;31.00;71.50;;;;;;5112174;28;20020;-78
2022/05/18 13:00:12;;;;;;;2.67;0.88;;;30.90;71.40;;;;;;5111099;28;20032;-78
2022/05/18 13:02:52;;;;;;;4.00;1.42;;;31.10;71.30;;;;;;5112807;28;20028;-79
2022/05/18 13:05:26;;;;;;;2.10;1.33;;;30.90;71.10;;;;;;5113363;28;20110;-78
2022/05/18 13:07:53;;;;;;;2.33;1.55;;;30.10;71.50;;;;;;5113504;28;20538;-78
2022/05/18 13:10:27;;;;;;;4.10;1.45;;;29.50;72.10;;;;;;5112476;28;20598;-78
2022/05/18 13:13:07;;;;;;;2.97;1.48;;;29.50;73.50;;;;;;5112325;28;20088;-82
2022/05/18 13:15:59;;;;;;;1.77;1.25;;;29.90;74.00;;;;;;5114256;28;20118;-79
2022/05/18 13:18:34;;;;;;;3.88;1.52;;;30.50;72.20;;;;;;5114614;28;20046;-77
2022/05/18 13:21:16;;;;;;;2.80;1.08;;;30.70;70.90;;;;;;5112127;28;20047;-69
2022/05/18 13:23:52;;;;;;;2.75;1.40;;;30.90;70.30;;;;;;5113049;28;20344;-78